createdAt,value
2023-03-17T00:01:54.817Z,99.90
2023-03-17T00:04:26.694Z,99.90
2023-03-17T00:06:54.430Z,99.90
2023-03-17T00:09:22.293Z,99.90
2023-03-17T00:11:50.261Z,99.90
2023-03-17T00:14:17.487Z,99.90
2023-03-17T00:16:48.389Z,99.90
2023-03-17T00:19:22.781Z,99.90
2023-03-17T00:21:49.978Z,99.90
2023-03-17T00:24:17.353Z,99.90
2023-03-17T00:26:44.219Z,99.90
2023-03-17T00:29:11.214Z,99.90
2023-03-17T00:31:39.564Z,99.90
2023-03-17T00:34:08.002Z,99.90
2023-03-17T00:36:35.975Z,99.90
2023-03-17T00:39:03.304Z,99.90
2023-03-17T00:41:30.296Z,99.90
2023-03-17T00:43:57.426Z,99.90
2023-03-17T00:46:35.569Z,99.90
2023-03-17T00:51:44.734Z,99.90
2023-03-17T00:54:13.781Z,99.90
2023-03-17T00:56:42.308Z,99.90
2023-03-17T00:59:26.487Z,99.90
2023-03-17T01:01:53.984Z,99.90
2023-03-17T01:04:21.049Z,99.90
2023-03-17T01:06:49.345Z,99.90
2023-03-17T01:09:18.531Z,99.90
2023-03-17T01:11:45.646Z,99.90
2023-03-17T01:14:13.340Z,99.90
2023-03-17T01:16:40.794Z,99.90
2023-03-17T01:19:07.702Z,99.90
2023-03-17T01:21:34.665Z,99.90
2023-03-17T01:24:01.631Z,99.90
2023-03-17T01:26:28.646Z,99.90
2023-03-17T01:28:55.522Z,99.90
2023-03-17T01:31:23.516Z,99.90
2023-03-17T01:33:51.290Z,99.90
2023-03-17T01:36:18.532Z,99.90
2023-03-17T01:38:48.126Z,99.90
2023-03-17T01:41:15.132Z,99.90
2023-03-17T01:43:42.603Z,99.90
2023-03-17T01:46:34.919Z,99.90
2023-03-17T01:49:05.641Z,99.90
2023-03-17T01:51:47.841Z,99.90
2023-03-17T01:54:21.920Z,99.90
2023-03-17T01:56:52.029Z,99.90
2023-03-17T01:59:23.776Z,99.90
2023-03-17T02:01:54.433Z,99.90
2023-03-17T02:04:21.984Z,99.90
2023-03-17T02:06:58.007Z,99.90
2023-03-17T02:09:27.564Z,99.90
2023-03-17T02:11:56.139Z,99.90
2023-03-17T02:14:23.753Z,99.90
2023-03-17T02:16:50.736Z,99.90
2023-03-17T02:19:17.663Z,99.90
2023-03-17T02:21:53.913Z,99.90
2023-03-17T02:24:27.897Z,99.90
2023-03-17T02:26:58.306Z,99.90
2023-03-17T02:29:25.219Z,99.90
2023-03-17T02:31:52.370Z,99.90
2023-03-17T02:34:19.837Z,99.90
2023-03-17T02:36:47.479Z,99.90
2023-03-17T02:39:14.430Z,99.90
2023-03-17T02:41:41.802Z,99.90
2023-03-17T02:44:08.947Z,99.90
2023-03-17T02:46:36.199Z,99.90
2023-03-17T02:49:03.679Z,99.90
2023-03-17T02:51:30.929Z,99.90
2023-03-17T02:53:57.802Z,99.90
2023-03-17T02:56:24.748Z,99.90
2023-03-17T02:58:51.731Z,99.90
2023-03-17T03:01:18.813Z,99.90
2023-03-17T03:03:45.968Z,99.90
2023-03-17T03:06:12.997Z,99.90
2023-03-17T03:08:39.856Z,99.90
2023-03-17T03:11:07.090Z,99.90
2023-03-17T03:13:34.089Z,99.90
2023-03-17T03:16:01.158Z,99.90
2023-03-17T03:18:28.139Z,99.90
2023-03-17T03:20:55.043Z,99.90
2023-03-17T03:23:22.101Z,99.90
2023-03-17T03:25:48.993Z,99.90
2023-03-17T03:28:17.768Z,99.90
2023-03-17T03:30:45.556Z,99.90
2023-03-17T03:33:14.052Z,99.90
2023-03-17T03:35:41.795Z,99.90
2023-03-17T03:38:09.011Z,99.90
2023-03-17T03:40:36.939Z,99.90
2023-03-17T03:43:16.261Z,99.90
2023-03-17T03:45:46.906Z,99.90
2023-03-17T03:48:13.986Z,99.90
2023-03-17T03:50:40.946Z,99.90
2023-03-17T03:53:07.877Z,99.90
2023-03-17T03:55:34.668Z,99.90
2023-03-17T03:58:01.583Z,99.90
2023-03-17T04:00:29.002Z,99.90
2023-03-17T04:02:56.108Z,99.90
2023-03-17T04:05:23.115Z,99.90
2023-03-17T04:07:50.094Z,99.90
2023-03-17T04:10:17.214Z,99.90
2023-03-17T04:12:45.804Z,99.90
2023-03-17T04:15:16.513Z,99.90
2023-03-17T04:17:43.680Z,99.90
2023-03-17T04:20:11.961Z,99.90
2023-03-17T04:22:39.374Z,99.90
2023-03-17T04:25:06.748Z,99.90
2023-03-17T04:27:33.846Z,99.90
2023-03-17T04:30:01.739Z,99.90
2023-03-17T04:32:28.679Z,99.90
2023-03-17T04:34:55.961Z,99.90
2023-03-17T04:37:22.898Z,99.90
2023-03-17T04:39:49.796Z,99.90
2023-03-17T04:42:17.544Z,99.90
2023-03-17T04:44:44.517Z,99.90
2023-03-17T04:47:11.532Z,99.90
2023-03-17T04:49:38.508Z,99.90
2023-03-17T04:52:05.570Z,99.90
2023-03-17T04:54:32.498Z,99.90
2023-03-17T04:56:59.281Z,99.90
2023-03-17T04:59:26.762Z,99.90
2023-03-17T05:01:53.557Z,99.90
2023-03-17T05:04:31.240Z,99.90
2023-03-17T05:06:59.391Z,99.90
2023-03-17T05:09:28.616Z,99.90
2023-03-17T05:11:55.712Z,99.90
2023-03-17T05:14:22.606Z,99.90
2023-03-17T05:16:50.734Z,99.90
2023-03-17T05:19:18.428Z,99.90
2023-03-17T05:21:45.455Z,99.90
2023-03-17T05:24:12.592Z,99.90
2023-03-17T05:26:40.706Z,99.90
2023-03-17T05:29:07.690Z,99.90
2023-03-17T05:31:34.524Z,99.90
2023-03-17T05:34:01.421Z,99.90
2023-03-17T05:36:28.530Z,99.90
2023-03-17T05:38:55.573Z,99.90
2023-03-17T05:41:23.013Z,99.90
2023-03-17T05:43:50.051Z,99.90
2023-03-17T05:46:18.587Z,99.90
2023-03-17T05:48:47.319Z,99.90
2023-03-17T05:51:14.356Z,99.90
2023-03-17T05:53:41.790Z,99.90
2023-03-17T05:56:09.336Z,99.90
2023-03-17T05:58:36.611Z,99.90
2023-03-17T06:01:03.542Z,99.90
2023-03-17T06:03:30.605Z,99.90
2023-03-17T06:05:57.649Z,99.90
2023-03-17T06:08:24.471Z,99.90
2023-03-17T06:10:51.493Z,99.90
2023-03-17T06:13:18.338Z,99.90
2023-03-17T06:15:47.706Z,99.90
2023-03-17T06:18:14.533Z,99.90
2023-03-17T06:20:41.582Z,99.90
2023-03-17T06:23:08.554Z,99.90
2023-03-17T06:25:35.748Z,99.90
2023-03-17T06:28:04.163Z,99.90
2023-03-17T06:30:35.507Z,99.90
2023-03-17T06:33:03.519Z,99.90
2023-03-17T06:35:31.605Z,99.90
2023-03-17T06:37:58.963Z,99.90
2023-03-17T06:40:26.072Z,99.90
2023-03-17T06:42:53.375Z,99.90
2023-03-17T06:45:20.226Z,99.90
2023-03-17T06:47:47.179Z,99.90
2023-03-17T06:50:14.240Z,99.90
2023-03-17T06:52:41.322Z,99.90
2023-03-17T06:55:08.984Z,99.90
2023-03-17T06:57:36.427Z,99.90
2023-03-17T07:00:06.550Z,99.90
2023-03-17T07:02:33.915Z,99.90
2023-03-17T07:05:01.144Z,99.90
2023-03-17T07:07:28.512Z,99.90
2023-03-17T07:09:55.342Z,99.90
2023-03-17T07:12:22.240Z,99.90
2023-03-17T07:14:49.194Z,99.90
2023-03-17T07:17:16.396Z,99.90
2023-03-17T07:19:43.703Z,99.90
2023-03-17T07:22:12.534Z,99.90
2023-03-17T07:24:41.327Z,99.90
2023-03-17T07:27:08.672Z,99.90
2023-03-17T07:29:35.516Z,99.90
2023-03-17T07:32:02.973Z,99.90
2023-03-17T07:34:29.808Z,99.90
2023-03-17T07:36:56.827Z,99.90
2023-03-17T07:39:23.650Z,99.90
2023-03-17T07:41:55.089Z,99.90
2023-03-17T07:44:22.722Z,99.90
2023-03-17T07:46:50.666Z,99.90
2023-03-17T07:49:20.993Z,99.90
2023-03-17T07:51:54.633Z,99.90
2023-03-17T07:54:21.583Z,94.90
2023-03-17T07:56:48.746Z,93.70
2023-03-17T07:59:15.982Z,91.70
2023-03-17T08:01:43.158Z,83.70
2023-03-17T08:04:12.548Z,74.00
2023-03-17T08:06:43.397Z,68.90
2023-03-17T08:09:13.856Z,69.10
2023-03-17T08:11:40.762Z,65.00
2023-03-17T08:14:07.988Z,57.50
2023-03-17T08:16:35.070Z,52.60
2023-03-17T08:19:03.980Z,48.70
2023-03-17T08:21:31.168Z,47.60
2023-03-17T08:23:58.226Z,47.60
2023-03-17T08:26:25.507Z,49.20
2023-03-17T08:28:52.599Z,50.20
2023-03-17T08:31:21.615Z,52.70
2023-03-17T08:33:54.019Z,53.70
2023-03-17T08:36:21.645Z,52.40
2023-03-17T08:38:48.744Z,50.10
2023-03-17T08:41:18.766Z,52.00
2023-03-17T08:43:46.870Z,50.10
2023-03-17T08:46:27.201Z,49.80
2023-03-17T08:48:56.459Z,51.00
2023-03-17T08:51:25.405Z,50.30
2023-03-17T08:53:53.912Z,48.50
2023-03-17T08:56:21.721Z,48.40
2023-03-17T08:58:49.472Z,49.00
2023-03-17T09:01:16.697Z,47.90
2023-03-17T09:03:45.613Z,49.80
2023-03-17T09:06:13.673Z,49.50
2023-03-17T09:08:45.071Z,48.70
2023-03-17T09:11:16.685Z,49.30
2023-03-17T09:13:44.838Z,49.60
2023-03-17T09:16:12.017Z,51.10
2023-03-17T09:18:39.443Z,51.70
2023-03-17T09:21:07.067Z,53.90
2023-03-17T09:23:33.886Z,54.60
2023-03-17T09:26:01.927Z,52.10
2023-03-17T09:28:29.232Z,52.50
2023-03-17T09:31:01.223Z,54.90
2023-03-17T09:33:28.685Z,56.60
2023-03-17T09:35:57.074Z,57.10
2023-03-17T09:38:26.374Z,58.80
2023-03-17T09:41:19.958Z,60.20
2023-03-17T09:44:05.153Z,61.60
2023-03-17T09:47:02.519Z,63.80
2023-03-17T09:49:48.772Z,63.70
2023-03-17T09:52:22.057Z,65.90
2023-03-17T09:54:49.651Z,68.80
2023-03-17T09:57:18.225Z,67.90
2023-03-17T10:00:01.360Z,70.30
2023-03-17T10:02:31.765Z,71.90
2023-03-17T10:05:20.493Z,71.50
2023-03-17T10:08:29.051Z,72.20
2023-03-17T10:10:59.946Z,73.00
2023-03-17T10:13:55.002Z,77.40
2023-03-17T10:16:34.526Z,76.30
2023-03-17T10:19:12.172Z,75.80
2023-03-17T10:21:48.225Z,76.20
2023-03-17T10:24:15.196Z,76.00
2023-03-17T10:26:53.359Z,78.20
2023-03-17T10:29:22.822Z,79.60
2023-03-17T10:31:56.264Z,82.50
2023-03-17T10:34:30.776Z,85.00
2023-03-17T10:37:09.455Z,82.40
2023-03-17T10:39:51.158Z,82.20
2023-03-17T10:42:26.893Z,84.70
2023-03-17T10:45:14.734Z,86.00
2023-03-17T10:47:46.058Z,83.00
2023-03-17T10:50:21.658Z,83.00
2023-03-17T10:52:54.701Z,81.20
2023-03-17T10:55:26.522Z,80.30
2023-03-17T10:58:06.166Z,79.50
2023-03-17T11:00:35.609Z,81.70
2023-03-17T11:03:22.859Z,81.60
2023-03-17T11:06:08.496Z,82.60
2023-03-17T11:08:41.938Z,85.40
2023-03-17T11:11:22.476Z,83.80
2023-03-17T11:13:49.423Z,80.90
2023-03-17T11:16:23.499Z,79.90
2023-03-17T11:18:57.845Z,81.40
2023-03-17T11:21:34.671Z,78.70
2023-03-17T11:24:09.297Z,81.70
2023-03-17T11:26:59.180Z,81.90
2023-03-17T11:29:38.126Z,78.00
2023-03-17T11:32:26.821Z,79.30
2023-03-17T11:35:18.352Z,76.30
2023-03-17T11:37:56.859Z,75.40
2023-03-17T11:40:37.456Z,77.00
2023-03-17T11:43:41.561Z,73.70
2023-03-17T11:46:14.164Z,75.00
2023-03-17T11:48:56.737Z,74.00
2023-03-17T11:51:46.421Z,74.20
2023-03-17T11:54:34.936Z,74.00
2023-03-17T11:57:08.916Z,74.40
2023-03-17T11:59:58.850Z,73.30
2023-03-17T12:02:27.127Z,74.80
2023-03-17T12:05:31.893Z,75.60
2023-03-17T12:08:39.846Z,72.50
2023-03-17T12:11:18.752Z,74.40
2023-03-17T12:13:51.571Z,72.70
2023-03-17T12:16:46.964Z,72.10
2023-03-17T12:19:16.904Z,72.40
2023-03-17T12:22:22.694Z,71.00
2023-03-17T12:25:32.704Z,71.20
2023-03-17T12:28:16.036Z,69.40
2023-03-17T12:31:06.822Z,69.60
2023-03-17T12:33:59.637Z,72.20
2023-03-17T12:36:27.124Z,73.50
2023-03-17T12:38:57.069Z,73.60
2023-03-17T12:41:45.062Z,72.30
2023-03-17T12:44:17.783Z,71.40
2023-03-17T12:46:55.820Z,73.10
2023-03-17T12:49:56.896Z,72.20
2023-03-17T12:52:58.738Z,70.10
2023-03-17T12:55:31.003Z,70.40
2023-03-17T12:58:04.651Z,70.60
2023-03-17T13:00:34.245Z,70.20
2023-03-17T13:03:32.202Z,71.80
2023-03-17T13:06:07.464Z,71.50
2023-03-17T13:08:41.047Z,72.80
2023-03-17T13:11:19.955Z,72.70
2023-03-17T13:13:49.649Z,73.50
2023-03-17T13:16:28.519Z,72.40
2023-03-17T13:19:24.311Z,71.70
2023-03-17T13:22:03.595Z,70.00
2023-03-17T13:24:48.561Z,72.20
2023-03-17T13:27:35.381Z,73.10
2023-03-17T13:30:22.775Z,74.50
2023-03-17T13:33:21.611Z,73.70
2023-03-17T13:36:05.493Z,73.80
2023-03-17T13:38:41.036Z,75.30
2023-03-17T13:41:48.412Z,75.70
2023-03-17T13:44:29.015Z,78.30
2023-03-17T13:47:08.890Z,77.10
2023-03-17T13:49:37.153Z,75.80
2023-03-17T13:52:17.576Z,74.30
2023-03-17T13:54:51.258Z,73.40
2023-03-17T13:57:39.139Z,74.50
2023-03-17T14:00:33.089Z,74.40
2023-03-17T14:03:15.587Z,74.00
2023-03-17T14:05:46.597Z,73.10
2023-03-17T14:08:31.797Z,72.10
2023-03-17T14:11:02.652Z,71.70
2023-03-17T14:13:46.866Z,71.20
2023-03-17T14:16:35.863Z,73.00
2023-03-17T14:19:23.083Z,72.40
2023-03-17T14:21:50.145Z,74.30
2023-03-17T14:24:24.389Z,74.20
2023-03-17T14:26:53.006Z,74.90
2023-03-17T14:29:25.347Z,74.00
2023-03-17T14:32:02.930Z,75.50
2023-03-17T14:34:30.267Z,76.60
2023-03-17T14:37:04.571Z,77.70
2023-03-17T14:39:32.164Z,75.90
2023-03-17T14:42:05.245Z,72.30
2023-03-17T14:44:39.811Z,73.00
2023-03-17T14:47:16.530Z,70.50
2023-03-17T14:49:43.690Z,69.40
2023-03-17T14:52:23.395Z,68.80
2023-03-17T14:54:53.517Z,69.30
2023-03-17T14:57:26.158Z,67.10
2023-03-17T15:00:01.278Z,68.10
2023-03-17T15:02:28.512Z,68.30
2023-03-17T15:05:04.168Z,67.80
2023-03-17T15:07:41.831Z,69.10
2023-03-17T15:10:34.182Z,68.50
2023-03-17T15:13:04.444Z,70.00
2023-03-17T15:15:34.010Z,71.10
2023-03-17T15:18:10.837Z,71.60
2023-03-17T15:20:37.745Z,71.70
2023-03-17T15:23:25.209Z,72.00
2023-03-17T15:25:57.889Z,73.40
2023-03-17T15:28:28.950Z,75.10
2023-03-17T15:31:05.833Z,76.30
2023-03-17T15:33:36.921Z,77.80
2023-03-17T15:36:05.060Z,78.10
2023-03-17T15:38:33.687Z,77.00
2023-03-17T15:41:00.536Z,77.20
2023-03-17T15:43:27.383Z,77.10
2023-03-17T15:46:01.344Z,77.50
2023-03-17T15:48:31.571Z,77.30
2023-03-17T15:51:00.254Z,77.10
2023-03-17T15:53:27.550Z,77.10
2023-03-17T15:55:54.536Z,76.20
2023-03-17T15:58:22.081Z,77.30
2023-03-17T16:00:53.639Z,77.50
2023-03-17T16:03:37.027Z,78.20
2023-03-17T16:06:07.318Z,78.20
2023-03-17T16:08:34.700Z,78.70
2023-03-17T16:11:01.513Z,78.70
2023-03-17T16:13:28.373Z,79.30
2023-03-17T16:16:00.891Z,78.90
2023-03-17T16:18:37.652Z,78.30
2023-03-17T16:21:05.272Z,79.30
2023-03-17T16:23:36.914Z,78.90
2023-03-17T16:26:14.916Z,79.60
2023-03-17T16:28:44.661Z,80.80
2023-03-17T16:31:30.619Z,81.30
2023-03-17T16:33:57.832Z,80.70
2023-03-17T16:36:25.555Z,80.90
2023-03-17T16:38:52.930Z,82.10
2023-03-17T16:41:27.515Z,82.70
2023-03-17T16:44:02.226Z,82.50
2023-03-17T16:46:35.160Z,83.30
2023-03-17T16:49:02.905Z,84.30
2023-03-17T16:51:30.440Z,84.80
2023-03-17T16:53:57.265Z,85.20
2023-03-17T16:56:27.045Z,85.10
2023-03-17T16:58:53.919Z,85.00
2023-03-17T17:01:24.834Z,86.00
2023-03-17T17:03:52.032Z,85.80
2023-03-17T17:06:21.093Z,86.20
2023-03-17T17:08:49.894Z,86.80
2023-03-17T17:11:18.441Z,86.90
2023-03-17T17:13:47.809Z,87.70
2023-03-17T17:16:26.803Z,88.50
2023-03-17T17:18:54.154Z,89.10
2023-03-17T17:21:21.291Z,88.70
2023-03-17T17:23:48.382Z,88.70
2023-03-17T17:26:15.406Z,89.80
2023-03-17T17:28:42.785Z,90.20
2023-03-17T17:31:10.415Z,90.30
2023-03-17T17:33:37.696Z,90.20
2023-03-17T17:36:07.905Z,90.20
2023-03-17T17:38:34.822Z,90.30
2023-03-17T17:41:06.901Z,91.90
2023-03-17T17:43:33.790Z,91.90
2023-03-17T17:46:01.051Z,91.80
2023-03-17T17:48:28.628Z,92.00
2023-03-17T17:50:57.012Z,91.40
2023-03-17T17:53:24.604Z,91.30
2023-03-17T17:55:52.074Z,91.50
2023-03-17T17:58:22.747Z,91.60
2023-03-17T18:00:50.580Z,91.90
2023-03-17T18:03:22.133Z,91.80
2023-03-17T18:05:49.041Z,91.30
2023-03-17T18:08:15.940Z,90.80
2023-03-17T18:10:42.793Z,91.10
2023-03-17T18:13:09.656Z,91.00
2023-03-17T18:15:36.562Z,91.40
2023-03-17T18:18:04.254Z,90.70
2023-03-17T18:20:31.723Z,90.30
2023-03-17T18:22:58.853Z,89.50
2023-03-17T18:25:27.166Z,89.30
2023-03-17T18:27:54.887Z,88.20
2023-03-17T18:30:27.387Z,87.50
2023-03-17T18:32:58.367Z,88.10
2023-03-17T18:35:27.273Z,86.70
2023-03-17T18:37:56.402Z,86.50
2023-03-17T18:40:23.402Z,87.30
2023-03-17T18:42:50.369Z,87.50
2023-03-17T18:45:17.668Z,87.30
2023-03-17T18:47:44.562Z,87.10
2023-03-17T18:50:13.625Z,87.20
2023-03-17T18:52:41.939Z,88.20
2023-03-17T18:55:11.211Z,88.40
2023-03-17T18:57:38.310Z,88.10
2023-03-17T19:00:08.615Z,90.10
2023-03-17T19:02:36.998Z,90.30
2023-03-17T19:05:04.427Z,89.70
2023-03-17T19:07:31.292Z,88.30
2023-03-17T19:09:58.232Z,87.70
2023-03-17T19:12:25.453Z,86.50
2023-03-17T19:14:52.824Z,85.60
2023-03-17T19:17:19.712Z,84.70
2023-03-17T19:19:46.775Z,84.40
2023-03-17T19:22:14.159Z,83.40
2023-03-17T19:24:41.198Z,82.50
2023-03-17T19:27:08.494Z,83.30
2023-03-17T19:29:35.312Z,82.60
2023-03-17T19:32:02.470Z,83.00
2023-03-17T19:34:29.370Z,82.10
2023-03-17T19:36:56.376Z,82.60
2023-03-17T19:39:23.374Z,81.70
2023-03-17T19:41:53.321Z,82.50
2023-03-17T19:44:21.278Z,81.80
2023-03-17T19:46:48.476Z,81.70
2023-03-17T19:49:15.921Z,81.70
2023-03-17T19:51:43.376Z,81.70
2023-03-17T19:54:11.964Z,81.40
2023-03-17T19:56:38.996Z,81.60
2023-03-17T19:59:06.895Z,81.70
2023-03-17T20:01:33.886Z,80.90
2023-03-17T20:04:01.094Z,80.80
2023-03-17T20:06:28.076Z,82.10
2023-03-17T20:08:54.994Z,82.80
2023-03-17T20:11:21.867Z,82.60
2023-03-17T20:13:48.952Z,82.40
2023-03-17T20:16:16.486Z,82.20
2023-03-17T20:18:43.447Z,82.60
2023-03-17T20:21:13.600Z,81.50
2023-03-17T20:23:40.879Z,81.60
2023-03-17T20:26:08.410Z,81.00
2023-03-17T20:28:36.383Z,80.90
2023-03-17T20:31:04.708Z,80.10
2023-03-17T20:33:33.449Z,80.70
2023-03-17T20:36:01.983Z,80.50
2023-03-17T20:38:30.976Z,81.50
2023-03-17T20:41:11.869Z,81.10
2023-03-17T20:43:39.312Z,81.10
2023-03-17T20:46:09.060Z,81.10
2023-03-17T20:48:37.275Z,81.00
2023-03-17T20:51:05.570Z,80.70
2023-03-17T20:53:33.451Z,80.40
2023-03-17T20:56:00.344Z,80.30
2023-03-17T20:58:27.772Z,80.50
2023-03-17T21:00:57.018Z,80.80
2023-03-17T21:03:24.065Z,80.90
2023-03-17T21:05:51.167Z,81.10
2023-03-17T21:08:18.950Z,81.30
2023-03-17T21:10:45.883Z,81.00
2023-03-17T21:13:12.926Z,81.10
2023-03-17T21:15:41.130Z,80.70
2023-03-17T21:18:08.030Z,81.20
2023-03-17T21:20:34.965Z,81.60
2023-03-17T21:23:04.544Z,81.80
2023-03-17T21:25:31.546Z,82.60
2023-03-17T21:27:58.702Z,81.60
2023-03-17T21:30:25.677Z,82.10
2023-03-17T21:32:54.688Z,82.80
2023-03-17T21:35:22.132Z,82.70
2023-03-17T21:37:49.211Z,82.20
2023-03-17T21:40:16.945Z,83.00
2023-03-17T21:42:43.844Z,82.70
2023-03-17T21:45:11.766Z,82.90
2023-03-17T21:47:40.873Z,82.70
2023-03-17T21:50:08.175Z,82.70
2023-03-17T21:52:35.015Z,84.00
2023-03-17T21:55:01.898Z,83.70
2023-03-17T21:57:29.689Z,83.90
2023-03-17T21:59:56.805Z,84.50
2023-03-17T22:02:24.244Z,84.20
2023-03-17T22:04:51.085Z,84.00
2023-03-17T22:07:18.401Z,84.70
2023-03-17T22:09:45.621Z,84.40
2023-03-17T22:12:12.677Z,84.00
2023-03-17T22:14:39.799Z,84.70
2023-03-17T22:17:06.752Z,84.60
2023-03-17T22:19:33.754Z,84.70
2023-03-17T22:22:00.804Z,84.70
2023-03-17T22:24:27.732Z,85.10
2023-03-17T22:26:55.717Z,85.50
2023-03-17T22:29:22.629Z,86.30
2023-03-17T22:31:49.789Z,86.70
2023-03-17T22:34:17.343Z,87.00
2023-03-17T22:36:44.198Z,86.70
2023-03-17T22:39:11.832Z,87.40
2023-03-17T22:41:39.161Z,87.60
2023-03-17T22:44:08.308Z,88.10
2023-03-17T22:46:36.190Z,88.40
2023-03-17T22:49:03.762Z,88.10
2023-03-17T22:51:30.610Z,88.20
2023-03-17T22:53:57.568Z,88.10
2023-03-17T22:56:26.052Z,88.10
2023-03-17T22:58:54.201Z,88.10
2023-03-17T23:01:23.849Z,88.40
2023-03-17T23:03:51.064Z,88.40
2023-03-17T23:06:18.402Z,88.50
2023-03-17T23:08:46.488Z,89.70
2023-03-17T23:11:18.237Z,90.00
2023-03-17T23:13:47.378Z,90.00
2023-03-17T23:16:14.773Z,90.30
2023-03-17T23:18:42.837Z,90.40
2023-03-17T23:21:14.976Z,90.60
2023-03-17T23:23:41.951Z,90.40
2023-03-17T23:26:09.304Z,90.50
2023-03-17T23:28:36.774Z,90.90
2023-03-17T23:31:03.796Z,91.10
2023-03-17T23:33:30.950Z,91.10
2023-03-17T23:35:57.850Z,90.90
2023-03-17T23:38:25.181Z,91.30
2023-03-17T23:40:56.650Z,91.30
2023-03-17T23:43:23.981Z,91.70
2023-03-17T23:45:53.053Z,92.00
2023-03-17T23:48:20.763Z,92.00
2023-03-17T23:50:50.258Z,92.10
2023-03-17T23:53:17.914Z,92.20
2023-03-17T23:55:45.387Z,92.20
2023-03-17T23:58:13.682Z,92.60
